You are here

Stations

Station Name Date Time Temperature Relative Humidity Precipitation Wind Speed Wind Direction Create Custom Report Daily Report Hourly Report
A&O Farm 2026-08-05 22:00 67.2 79.02 0.00 4.15 SSE
Aberdeen VTcrn 2026-08-05 22:00 61.9 85.90 0.00 2.37 SSE
Beaumont Exp Stn 2026-08-05 22:00 63.8 98.80 0.66 1.44 NNE
Bee Lake 2026-08-05 22:00 63.2 91.60 0.00 0.31 SSE
Belzoni 2026-08-05 22:00 64.8 81.10 0.00 2.53 SE
Black Belt F24 VTcrn 2026-08-05 22:00 60.0 96.30 0.00 0.00 ESE
Blk Belt F22-23 VTso 2026-08-05 22:00 59.4 92.60 0.04 0.53 SSE
Brooksville 2026-08-05 22:00 59.9 90.60 0.00 1.67 SSE
Brooksville2 VTso 2026-08-05 22:00 58.8 95.80 0.00
Brown Loam Exp. Stn. 2026-08-05 22:00 64.2 92.20 0.00 0.58 SSE
Brown Loam VT1crn/so 2026-08-05 22:00 -148.0 -100.00 0.00 1.09 SE
Brown Loam VT2crn/so 2026-08-05 22:00 64.8 97.70 0.00 1.84 SE
Canton 2026-08-05 22:-1
Cary 2026-08-05 22:00 66.0 86.50 0.00 2.27 SSE
Clarksdale VTso 2026-08-05 22:00 62.7 82.40 0.00
Cleveland 2026-08-05 22:00 63.4 80.90 0.00 2.66 ESE
Coastal Res & Ext Cnt 2026-08-05 22:00 69.6 93.80 0.67 1.60 SSW
Como 2026-08-05 22:00 59.4 82.20 0.00 1.52 SSE
Cooper Farm 2026-08-05 22:00 66.8 84.00 0.00 3.07 SSE
Crystal Sprgs Exp Stn 2026-08-05 22:00 63.4 100.00 0.03 1.42 S
Delta City 2026-08-05 22:00 66.3 82.70 0.01 5.18 S
Dundee 2026-08-05 22:00 60.0 86.90 0.00 0.96 SW
Greenwood 2026-08-05 22:00 62.8 81.80 0.00 0.67 E
Holly Bluff 2026-08-05 22:00 66.1 86.10 0.00 2.14 SSE
Holly Ridge 2026-08-05 22:00 65.3 78.78 0.00 4.63 SSE
Home Cypress Farm 2026-08-05 22:00 62.2 82.40 0.00 0.00 SE
Houston 2026-08-05 22:00 58.5 88.50 0.00 0.50 NW
Lamar 2026-08-05 22:00 59.7 80.10 0.00 0.56 SW
Lancaster 2026-08-05 22:00 65.1 81.70 0.00 2.62 S
Longwood VTso 2026-08-05 22:00 66.0 78.33 0.00 2.30 N
Lyon 2026-08-05 22:00 61.7 88.10 0.00 2.16 SSE
Macon VTcrn 2026-08-05 22:00 61.1 94.70 0.00 0.05 SE
Mantee VT 2026-08-05 22:00 61.6 93.80 0.00 0.00 N
McNeill 2026-08-05 22:00 66.1 96.20 1.90 1.13 WNW
Minter City VTcn 2026-08-05 22:00 60.8 89.10 0.00 0.00 N
Money 2026-08-05 22:00 62.5 87.00 0.00 2.37 S
Mound Bayou 2026-08-05 22:00 62.8 84.20 0.00 0.89 SE
MSU North Farm Starkv 2026-08-05 22:00 61.4 87.70 0.00 1.21 SSE
MSU South Farm Starkv 2026-08-05 22:00 60.3 88.20 0.00 1.65 SSE
Natchez 2026-08-05 22:00 65.7 97.20 1.32 0.99 ESE
Newton 2026-08-05 22:00 62.0 94.20 0.01 1.05 ESE
Olive Branch VTcr 2026-08-05 22:00 57.7 90.40 0.00 0.00 NNE
Olive Branch2 VTso 2026-08-05 22:00 59.0 96.50 0.04
Onward VTcrn 2026-08-05 22:00 67.5 89.90 0.00
Oxberry 2026-08-05 22:00 59.2 89.90 0.00 0.16 SSW
Pontotoc AWS COOP 2026-08-05 22:-1
Pontotoc Exp Stn 2026-08-05 22:00 56.5 92.30 0.00 1.45 SE
Poplarville 2026-08-05 22:00 65.2 95.70 2.52 0.64 SE
Port Gibson 2026-08-05 22:00 64.9 98.80 0.01 2.44 E
Prairie 2026-08-05 22:00 58.7 92.40 0.00 2.46 SE
Senatobia 2026-08-05 22:00 58.2 88.60 0.00 0.00 ENE
Shurden Farm 2026-08-05 22:00 61.0 84.10 0.00 0.91 S
Sidon 2026-08-05 22:00 63.8 85.50 0.00 2.68 NNW
Sledge 2026-08-05 22:00 57.9 90.30 0.00 2.00 SE
Stnville F7 VTcrn/so 2026-08-05 22:00 66.8 70.23 0.00
Stoneville AWS 2026-08-05 22:00 64.5 80.50 0.00 3.77 S
Stoneville F10 2026-08-05 22:00 65.7 80.70 0.00 3.92 SSW
Stoneville F17 VTso 2026-08-05 22:00 66.2 72.94 0.00
Stoneville W 2026-08-05 22:00 66.3 76.76 0.00 4.89 SSE
Stoneville_F8 2026-08-05 22:00 65.4 80.10 0.00 2.87 SSE
Stoneville_SW 2026-08-05 22:00 66.0 81.10 0.00 4.77 SSE
Thighman 2026-08-05 22:00 65.7 82.60 0.00 2.97 SSE
Tippo VTso 2026-08-05 22:00 59.2 86.10 0.00
Tribbett 2026-08-05 22:00 66.1 76.81 0.00 3.56 S
Tunica 2026-08-05 22:00 -148.0 -100.00 0.00 4.36 S
Vaiden 2026-08-05 22:00 63.0 86.90 0.00 0.00 SE
Verona 2026-08-05 22:00 59.3 87.80 0.00 0.81 SSE
Verona VTcrn/so 2026-08-05 22:00 59.5 85.40 0.00
Vicksburg 2026-08-05 22:00 66.3 96.00 0.00 0.81 NNW
White Sand 2026-08-05 22:00 65.2 94.20 1.90 0.63 NNW
Back to Top